Time;durP1;ratioP1;P1;durP2;ratioP2;P2;SDS_P1;SDS_P2;PMS_P1;PMS_P2;Temp;Humidity;BMP_temperature;BMP_pressure;BME280_temperature;BME280_humidity;BME280_pressure;Samples;Min_cycle;Max_cycle;Signal;HPM_P1;HPM_P2
2023/09/29 00:01:52;;;;;;;9.90;6.70;;;;;;;16.83;95.70;98402.91;4188698;28;21297;-90
2023/09/29 00:03:56;;;;;;;6.93;6.23;;;;;;;16.83;95.00;98407.34;4173744;28;20630;-90
2023/09/29 00:05:59;;;;;;;8.97;7.17;;;;;;;16.81;94.86;98404.84;4169678;28;20648;-90
2023/09/29 00:08:03;;;;;;;7.33;6.57;;;;;;;16.81;94.31;98396.94;4172375;28;20647;-91
2023/09/29 00:10:09;;;;;;;7.57;5.97;;;;;;;16.76;94.07;98399.13;4188288;28;20620;-90
2023/09/29 00:12:13;;;;;;;9.10;6.67;;;;;;;16.68;93.73;98393.69;4185643;28;21188;-90
2023/09/29 00:14:16;;;;;;;8.50;6.50;;;;;;;16.62;95.29;98390.78;4186623;28;21088;-90
2023/09/29 00:16:20;;;;;;;8.63;6.70;;;;;;;16.62;94.02;98396.88;4188215;28;20960;-90
2023/09/29 00:18:24;;;;;;;8.03;6.33;;;;;;;16.59;95.26;98391.06;4186101;28;20671;-89
2023/09/29 00:20:27;;;;;;;7.60;6.40;;;;;;;16.58;95.24;98392.00;4182192;28;20726;-90
2023/09/29 00:22:32;;;;;;;8.60;6.50;;;;;;;16.58;95.19;98395.50;4202123;28;20620;-90
2023/09/29 00:24:35;;;;;;;8.40;6.63;;;;;;;16.60;95.70;98392.72;4182960;28;21187;-90
2023/09/29 00:26:39;;;;;;;10.70;6.73;;;;;;;16.61;96.87;98394.38;4186605;28;21128;-90
2023/09/29 00:28:42;;;;;;;8.93;6.70;;;;;;;16.60;95.94;98393.53;4186671;28;20666;-89
2023/09/29 00:30:46;;;;;;;8.00;6.63;;;;;;;16.60;96.34;98393.53;4186809;28;20628;-89
2023/09/29 00:32:51;;;;;;;9.13;7.03;;;;;;;16.58;96.74;98389.38;4172992;28;20638;-90
2023/09/29 00:34:56;;;;;;;7.20;6.50;;;;;;;16.56;95.72;98392.13;4190118;28;20630;-91
2023/09/29 00:37:00;;;;;;;8.47;6.63;;;;;;;16.54;95.34;98388.00;4191447;28;21255;-90
2023/09/29 00:39:07;;;;;;;7.97;6.40;;;;;;;16.50;96.62;98391.03;4174627;28;20649;-89
2023/09/29 00:41:10;;;;;;;7.20;6.37;;;;;;;16.47;96.40;98391.28;4188015;28;20698;-90
2023/09/29 00:43:15;;;;;;;7.30;6.23;;;;;;;16.45;96.84;98390.56;4185362;28;20682;-90
2023/09/29 00:45:22;;;;;;;9.50;6.30;;;;;;;16.40;94.59;98390.16;4189378;28;21355;-90
2023/09/29 00:47:26;;;;;;;7.93;6.80;;;;;;;16.39;94.68;98393.72;4191074;28;21092;-90
2023/09/29 00:49:30;;;;;;;7.80;6.23;;;;;;;16.38;94.70;98389.47;4184800;28;20633;-90
2023/09/29 00:51:34;;;;;;;8.40;7.10;;;;;;;16.38;95.77;98389.47;4184974;28;20639;-90
2023/09/29 00:53:38;;;;;;;24.23;7.80;;;;;;;16.35;96.15;98392.34;4174008;28;20633;-90
2023/09/29 00:55:42;;;;;;;8.70;7.00;;;;;;;16.35;96.34;98395.81;4175048;28;20653;-90
2023/09/29 00:57:45;;;;;;;8.00;6.90;;;;;;;16.33;94.66;98394.28;4191729;28;20623;-90
2023/09/29 00:59:51;;;;;;;7.17;6.40;;;;;;;16.29;94.67;98391.06;4176993;28;21032;-90
2023/09/29 01:01:56;;;;;;;7.97;6.40;;;;;;;16.25;95.82;98391.47;4188899;28;20725;-90
2023/09/29 01:04:00;;;;;;;7.53;6.37;;;;;;;16.22;95.14;98397.00;4173321;28;20640;-90
2023/09/29 01:06:08;;;;;;;8.93;6.90;;;;;;;16.21;95.83;98392.69;4174554;28;20795;-90
2023/09/29 01:08:12;;;;;;;8.53;6.20;;;;;;;16.17;94.76;98394.72;4173470;28;20636;-89
2023/09/29 01:10:15;;;;;;;8.00;6.07;;;;;;;16.16;96.42;98397.50;4190408;28;20709;-89
2023/09/29 01:12:27;;;;;;;6.83;6.13;;;;;;;16.14;96.50;98386.25;4190631;28;20624;-89
2023/09/29 01:14:30;;;;;;;10.10;7.03;;;;;;;16.13;96.78;98387.22;4191077;28;21215;-90
2023/09/29 01:16:33;;;;;;;8.63;6.10;;;;;;;16.12;95.94;98382.94;4172882;28;20665;-90
2023/09/29 01:18:37;;;;;;;8.33;6.47;;;;;;;16.11;96.23;98387.34;4190720;28;20637;-91
2023/09/29 01:20:42;;;;;;;7.67;6.53;;;;;;;16.13;96.49;98392.47;4189732;28;21292;-91
2023/09/29 01:22:47;;;;;;;8.83;6.37;;;;;;;16.12;95.92;98385.56;4186571;28;21078;-90
2023/09/29 01:24:51;;;;;;;8.90;5.93;;;;;;;16.09;96.09;98384.03;4170819;28;20729;-90
2023/09/29 01:26:55;;;;;;;10.07;6.63;;;;;;;16.06;97.14;98381.66;4188375;28;20670;-91
2023/09/29 01:28:58;;;;;;;10.53;6.30;;;;;;;16.03;95.55;98386.34;4188915;28;20642;-90
2023/09/29 01:31:03;;;;;;;7.27;6.57;;;;;;;16.02;96.20;98379.41;4189995;28;21281;-90
2023/09/29 01:33:06;;;;;;;7.60;6.77;;;;;;;16.00;95.01;98378.72;4192536;28;20696;-90
2023/09/29 01:35:11;;;;;;;7.60;5.70;;;;;;;15.99;95.55;98389.38;4172913;28;20739;-90
2023/09/29 01:37:15;;;;;;;7.00;6.30;;;;;;;15.97;96.81;98380.78;4193286;28;20690;-90
2023/09/29 01:39:19;;;;;;;13.03;6.10;;;;;;;15.99;96.27;98382.31;4190718;28;20623;-90
2023/09/29 01:41:25;;;;;;;10.03;7.00;;;;;;;15.98;96.36;98385.06;4185535;28;20627;-90
2023/09/29 01:43:28;;;;;;;9.00;6.33;;;;;;;15.97;96.37;98386.88;4175161;28;20650;-90
2023/09/29 01:45:32;;;;;;;7.83;6.47;;;;;;;15.96;95.63;98389.63;4194505;28;20635;-90
2023/09/29 01:47:37;;;;;;;7.57;6.77;;;;;;;15.96;95.92;98390.47;4191231;28;20632;-89
2023/09/29 01:49:40;;;;;;;9.00;5.80;;;;;;;15.94;95.36;98389.78;4172202;28;20629;-90
2023/09/29 01:51:44;;;;;;;7.90;6.37;;;;;;;15.92;95.10;98386.44;4190846;28;20634;-90
2023/09/29 01:53:48;;;;;;;8.87;6.37;;;;;;;15.91;97.02;98387.41;4175087;28;20627;-90
2023/09/29 01:55:54;;;;;;;7.30;5.90;;;;;;;15.91;95.85;98389.22;4171384;28;20622;-90
2023/09/29 01:58:00;;;;;;;8.33;6.67;;;;;;;15.89;94.87;98386.72;4186688;28;20628;-89
2023/09/29 02:00:09;;;;;;;10.17;7.00;;;;;;;15.87;96.06;98388.59;4188879;28;21017;-90
2023/09/29 02:02:15;;;;;;;7.30;6.37;;;;;;;15.86;95.70;98386.09;4187218;28;20681;-90
2023/09/29 02:04:18;;;;;;;6.57;5.87;;;;;;;15.84;96.39;98390.69;4189000;28;20742;-90
2023/09/29 02:06:21;;;;;;;7.40;5.93;;;;;;;15.81;96.19;98386.50;4183790;28;20619;-90
2023/09/29 02:08:25;;;;;;;8.10;6.23;;;;;;;15.81;96.31;98381.22;4188653;28;20639;-90
2023/09/29 02:10:29;;;;;;;8.00;6.30;;;;;;;15.81;95.32;98391.75;4166893;28;21276;-90
2023/09/29 02:12:32;;;;;;;10.80;6.07;;;;;;;15.78;96.12;98392.00;4190678;28;20693;-90
2023/09/29 02:14:39;;;;;;;8.73;6.60;;;;;;;15.76;96.04;98388.69;4201146;28;20625;-90
2023/09/29 02:16:43;;;;;;;9.10;6.13;;;;;;;15.72;96.54;98387.28;4185161;28;21400;-90
2023/09/29 02:18:47;;;;;;;7.73;5.93;;;;;;;15.71;94.98;98395.28;4186019;28;21296;-90
2023/09/29 02:20:50;;;;;;;7.10;5.87;;;;;;;15.69;96.82;98387.53;4192363;28;20705;-89
2023/09/29 02:22:55;;;;;;;7.30;6.40;;;;;;;15.67;97.05;98383.38;4189114;28;20781;-90
2023/09/29 02:25:06;;;;;;;7.33;6.43;;;;;;;15.63;95.92;98380.16;4170584;28;20668;-90
2023/09/29 02:27:10;;;;;;;6.00;5.37;;;;;;;15.63;95.30;98379.31;4187880;28;20631;-90
2023/09/29 02:29:13;;;;;;;8.13;6.27;;;;;;;15.60;95.82;98385.66;4188046;28;20639;-90
2023/09/29 02:31:17;;;;;;;8.47;6.37;;;;;;;15.57;96.60;98375.44;4171284;28;20638;-89
2023/09/29 02:33:21;;;;;;;9.33;6.40;;;;;;;15.53;95.99;98374.97;4192395;28;20689;-90
2023/09/29 02:35:23;;;;;;;7.77;6.57;;;;;;;15.46;94.93;98366.75;4189112;28;21222;-90
2023/09/29 02:37:28;;;;;;;8.33;6.33;;;;;;;15.47;95.64;98357.94;4188470;28;20632;-90
2023/09/29 02:39:31;;;;;;;7.27;5.70;;;;;;;15.46;95.85;98360.69;4172096;28;20626;-90
2023/09/29 02:41:34;;;;;;;8.03;6.60;;;;;;;15.48;96.16;98366.63;4172050;28;20645;-90
2023/09/29 02:43:38;;;;;;;7.93;6.70;;;;;;;15.48;96.18;98369.25;4188575;28;20724;-90
2023/09/29 02:45:40;;;;;;;7.43;6.63;;;;;;;15.48;96.06;98371.91;4172923;28;20720;-90
2023/09/29 02:47:47;;;;;;;8.87;7.23;;;;;;;15.48;96.21;98364.84;4173514;28;20849;-89
2023/09/29 02:49:51;;;;;;;7.43;6.20;;;;;;;15.53;96.22;98372.34;4170033;28;20719;-90
2023/09/29 02:51:55;;;;;;;8.30;7.17;;;;;;;15.55;97.82;98367.81;4187701;28;21054;-89
2023/09/29 02:53:58;;;;;;;7.50;6.30;;;;;;;15.54;97.40;98376.66;4189326;28;20627;-90
2023/09/29 02:56:00;;;;;;;8.00;6.20;;;;;;;15.54;97.89;98371.38;4167523;28;20647;-89
2023/09/29 02:58:04;;;;;;;8.50;7.27;;;;;;;15.54;97.86;98363.50;4188391;28;20632;-89
2023/09/29 03:00:11;;;;;;;7.93;5.70;;;;;;;15.53;97.69;98373.19;4170019;28;21243;-89
2023/09/29 03:02:14;;;;;;;7.97;6.70;;;;;;;15.52;96.57;98379.41;4187741;28;20630;-89
2023/09/29 03:04:19;;;;;;;9.40;5.60;;;;;;;15.53;97.27;98373.19;4173413;28;20620;-90
2023/09/29 03:06:23;;;;;;;8.13;6.80;;;;;;;15.53;97.08;98375.81;4171563;28;20640;-90
2023/09/29 03:08:28;;;;;;;6.97;6.27;;;;;;;15.53;98.17;98377.59;4187899;28;21205;-90
2023/09/29 03:10:32;;;;;;;8.13;6.40;;;;;;;15.52;97.45;98368.06;4185466;28;20628;-89
2023/09/29 03:12:38;;;;;;;7.27;5.57;;;;;;;15.51;97.41;98369.00;4184605;28;20716;-90
2023/09/29 03:14:41;;;;;;;7.03;6.33;;;;;;;15.50;96.29;98370.81;4186394;28;20617;-90
2023/09/29 03:16:45;;;;;;;9.70;7.37;;;;;;;15.49;97.61;98369.13;4168447;28;20667;-89
2023/09/29 03:18:48;;;;;;;7.03;6.33;;;;;;;15.48;97.74;98371.91;4186201;28;20679;-89
2023/09/29 03:20:53;;;;;;;12.07;7.03;;;;;;;15.47;97.94;98365.81;4187539;28;21841;-89
2023/09/29 03:22:57;;;;;;;9.10;6.90;;;;;;;15.46;97.69;98365.94;4187680;28;20650;-89
2023/09/29 03:25:01;;;;;;;8.43;6.80;;;;;;;15.43;96.50;98366.19;4187561;28;20689;-90
2023/09/29 03:27:04;;;;;;;7.60;6.00;;;;;;;15.41;97.85;98355.81;4170788;28;20628;-87
2023/09/29 03:29:09;;;;;;;8.27;7.40;;;;;;;15.40;97.09;98358.56;4166509;28;21046;-86
2023/09/29 03:31:13;;;;;;;8.23;6.60;;;;;;;15.39;96.09;98359.50;4185824;28;21131;-87
2023/09/29 03:33:16;;;;;;;10.30;7.57;;;;;;;15.38;96.34;98356.06;4172174;28;20649;-87
2023/09/29 03:35:20;;;;;;;7.90;6.80;;;;;;;15.38;97.32;98361.31;4188584;28;20630;-87
2023/09/29 03:37:26;;;;;;;8.00;5.97;;;;;;;15.40;96.11;98369.06;4188661;28;20634;-87
2023/09/29 03:39:30;;;;;;;7.77;6.90;;;;;;;15.40;97.92;98354.13;4185941;28;20649;-86
2023/09/29 03:41:33;;;;;;;8.00;7.07;;;;;;;15.40;98.20;98362.00;4189438;28;21259;-87
2023/09/29 03:43:36;;;;;;;9.00;6.60;;;;;;;15.40;97.17;98358.56;4203463;28;21479;-87
2023/09/29 03:45:40;;;;;;;10.13;7.60;;;;;;;15.37;96.22;98359.63;4183112;28;21063;-87
2023/09/29 03:47:46;;;;;;;8.33;7.17;;;;;;;15.37;97.74;98366.69;4188838;28;20629;-87
2023/09/29 03:49:50;;;;;;;9.70;7.00;;;;;;;15.37;96.54;98362.28;4185054;28;20643;-86
2023/09/29 03:51:53;;;;;;;11.50;7.50;;;;;;;15.38;98.04;98368.34;4189603;28;20701;-87
2023/09/29 03:53:58;;;;;;;9.07;7.90;;;;;;;15.35;97.30;98373.84;4187821;28;21062;-87
2023/09/29 03:56:01;;;;;;;9.40;7.00;;;;;;;15.32;97.96;98366.22;4186360;28;20612;-87
2023/09/29 03:58:05;;;;;;;9.47;7.37;;;;;;;15.31;96.84;98364.59;4189031;28;21271;-86
2023/09/29 04:00:12;;;;;;;8.17;7.33;;;;;;;15.31;97.89;98362.78;4187558;28;21169;-87
2023/09/29 04:02:16;;;;;;;12.07;6.87;;;;;;;15.29;96.97;98361.22;4184846;28;20654;-87
2023/09/29 04:04:19;;;;;;;7.60;6.37;;;;;;;15.28;97.22;98365.66;4174488;28;20675;-87
2023/09/29 04:06:23;;;;;;;8.77;6.90;;;;;;;15.28;96.54;98365.66;4186301;28;20722;-87
2023/09/29 04:08:26;;;;;;;9.17;6.77;;;;;;;15.27;97.80;98363.16;4201172;28;21099;-87
2023/09/29 04:10:31;;;;;;;9.40;7.27;;;;;;;15.25;96.24;98365.91;4188015;28;20627;-89
2023/09/29 04:12:34;;;;;;;7.80;7.00;;;;;;;15.29;97.88;98371.75;4183339;28;20667;-89
2023/09/29 04:14:37;;;;;;;7.33;6.53;;;;;;;15.29;96.79;98371.75;4167208;28;20644;-88
2023/09/29 04:16:41;;;;;;;8.10;6.90;;;;;;;15.27;97.42;98377.13;4196916;28;20658;-88
2023/09/29 04:18:44;;;;;;;10.00;7.57;;;;;;;15.25;96.67;98380.84;4186717;28;21403;-89
2023/09/29 04:20:47;;;;;;;8.73;6.57;;;;;;;15.22;97.97;98379.31;4181708;28;21154;-89
2023/09/29 04:22:51;;;;;;;7.80;6.40;;;;;;;15.24;97.39;98384.44;4184289;28;20635;-88
2023/09/29 04:24:54;;;;;;;8.50;7.60;;;;;;;15.24;96.13;98392.31;4188069;28;20647;-89
2023/09/29 04:26:59;;;;;;;10.40;6.33;;;;;;;15.23;97.42;98388.88;4182263;28;20728;-89
2023/09/29 04:29:02;;;;;;;8.77;6.90;;;;;;;15.22;96.37;98381.09;4168655;28;20652;-89
2023/09/29 04:31:07;;;;;;;8.53;6.87;;;;;;;15.17;97.38;98378.03;4183577;28;20623;-88
2023/09/29 04:33:10;;;;;;;7.60;6.80;;;;;;;15.16;97.43;98386.84;4177329;28;20647;-88
2023/09/29 04:35:13;;;;;;;9.27;6.70;;;;;;;15.18;97.09;98387.56;4188763;28;20726;-89
2023/09/29 04:37:17;;;;;;;10.70;8.13;;;;;;;15.18;98.03;98385.78;4189405;28;20637;-91
2023/09/29 04:39:20;;;;;;;8.40;7.13;;;;;;;15.18;98.55;98391.03;4191716;28;20634;-92
2023/09/29 04:41:24;;;;;;;8.53;7.00;;;;;;;15.23;97.95;98393.25;4190995;28;20646;-91
2023/09/29 04:43:29;;;;;;;10.50;6.33;;;;;;;15.23;98.55;98395.88;4174968;28;20749;-91
2023/09/29 04:45:33;;;;;;;8.60;7.03;;;;;;;15.25;97.82;98410.59;4184860;28;20619;-91
2023/09/29 04:47:38;;;;;;;13.40;7.80;;;;;;;15.26;98.74;98417.53;4185831;28;20631;-90
2023/09/29 04:49:45;;;;;;;7.67;6.73;;;;;;;15.29;98.00;98421.66;4184811;28;20638;-90
2023/09/29 04:51:48;;;;;;;10.30;6.53;;;;;;;15.28;98.79;98423.47;4176775;28;20690;-92
2023/09/29 04:53:52;;;;;;;8.37;6.17;;;;;;;15.26;98.26;98442.94;4187350;28;20641;-92
2023/09/29 04:55:55;;;;;;;10.30;7.60;;;;;;;15.27;98.64;98436.75;4173008;28;21338;-92
2023/09/29 04:57:58;;;;;;;9.60;6.20;;;;;;;15.24;96.83;98431.72;4190268;28;21195;-92
2023/09/29 05:00:04;;;;;;;9.23;6.27;;;;;;;15.22;97.02;98438.91;4209719;28;20721;-92
2023/09/29 05:02:08;;;;;;;10.67;7.07;;;;;;;15.21;97.59;98437.25;4192669;28;20643;-92
2023/09/29 05:04:11;;;;;;;8.87;6.40;;;;;;;15.22;98.87;98438.91;4193478;28;20643;-92
2023/09/29 05:06:14;;;;;;;8.30;6.20;;;;;;;15.20;97.75;98432.97;4188598;28;20659;-91
2023/09/29 05:08:18;;;;;;;8.17;6.77;;;;;;;15.21;99.15;98421.47;4191379;28;20643;-92
2023/09/29 05:10:21;;;;;;;12.03;7.30;;;;;;;15.20;98.56;98420.66;4172619;28;20662;-92
2023/09/29 05:12:24;;;;;;;11.53;6.70;;;;;;;15.21;97.39;98416.22;4189647;28;20622;-92
2023/09/29 05:14:28;;;;;;;8.93;7.10;;;;;;;15.20;97.08;98415.41;4207069;28;20753;-92
2023/09/29 05:16:32;;;;;;;7.73;6.77;;;;;;;15.23;97.63;98414.28;4188574;28;20752;-91
2023/09/29 05:18:36;;;;;;;7.97;6.30;;;;;;;15.20;97.83;98409.31;4174689;28;20641;-92
2023/09/29 05:20:39;;;;;;;8.97;6.60;;;;;;;15.23;98.96;98414.28;4193589;28;20642;-92
2023/09/29 05:22:42;;;;;;;7.83;6.40;;;;;;;15.31;99.81;98425.03;4186929;28;20694;-92
2023/09/29 05:24:46;;;;;;;7.40;6.27;;;;;;;15.38;98.93;98428.81;4172769;28;20635;-92
2023/09/29 05:26:49;;;;;;;7.93;6.63;;;;;;;15.43;98.37;98431.91;4189933;28;20651;-91
2023/09/29 05:28:53;;;;;;;7.97;6.60;;;;;;;15.47;100.00;98428.06;4185766;28;20643;-91
2023/09/29 05:30:57;;;;;;;8.97;6.50;;;;;;;15.51;98.56;98425.03;4187663;28;21183;-92
2023/09/29 05:33:02;;;;;;;10.83;6.63;;;;;;;15.53;99.21;98423.16;4198291;28;20999;-92
2023/09/29 05:35:07;;;;;;;9.30;5.77;;;;;;;15.51;99.14;98429.47;4173231;28;21024;-91
2023/09/29 05:37:11;;;;;;;8.90;7.03;;;;;;;15.52;97.75;98434.63;4191550;28;21250;-92
2023/09/29 05:39:14;;;;;;;7.40;6.10;;;;;;;15.47;98.88;98425.41;4172877;28;20715;-92
2023/09/29 05:41:18;;;;;;;10.40;6.60;;;;;;;15.49;99.08;98426.16;4174344;28;20628;-92
2023/09/29 05:43:20;;;;;;;7.43;6.40;;;;;;;15.54;99.71;98422.16;4187507;28;20659;-90
2023/09/29 05:45:24;;;;;;;10.23;5.87;;;;;;;15.63;100.00;98437.19;4173636;28;20641;-87
2023/09/29 05:47:27;;;;;;;9.10;6.33;;;;;;;15.68;98.67;98437.63;4188210;28;20734;-87
2023/09/29 05:49:32;;;;;;;10.80;6.40;;;;;;;15.74;98.62;98439.75;4187780;28;21289;-87
2023/09/29 05:51:35;;;;;;;11.20;6.53;;;;;;;15.91;97.44;98450.53;4188038;28;20646;-87
2023/09/29 05:53:39;;;;;;;12.20;7.30;;;;;;;16.14;98.19;98454.69;4186253;28;20721;-87
2023/09/29 05:55:42;;;;;;;10.83;6.80;;;;;;;16.32;97.17;98453.16;4189430;28;20643;-89
2023/09/29 05:57:46;;;;;;;13.70;7.73;;;;;;;16.50;96.59;98459.50;4187369;28;20974;-89
2023/09/29 05:59:51;;;;;;;8.87;6.70;;;;;;;16.64;96.75;98455.53;4203764;28;20628;-89
2023/09/29 06:01:54;;;;;;;10.63;7.37;;;;;;;16.77;96.24;98458.75;4192398;28;20632;-89
2023/09/29 06:04:17;;;;;;;8.00;6.53;;;;;;;16.93;95.27;98453.81;4188188;28;20688;-89
2023/09/29 06:06:23;;;;;;;9.33;7.00;;;;;;;17.01;92.90;98459.25;4205060;28;20757;-89
2023/09/29 06:08:26;;;;;;;7.60;6.73;;;;;;;17.03;92.34;98454.66;4190570;28;20729;-89
2023/09/29 06:10:46;;;;;;;10.43;6.90;;;;;;;16.98;93.74;98456.88;4207825;28;21258;-88
2023/09/29 06:12:48;;;;;;;7.93;6.40;;;;;;;17.04;93.13;98462.44;4198801;28;20689;-89
2023/09/29 06:14:51;;;;;;;8.10;6.37;;;;;;;17.16;94.55;98465.81;4171236;28;20699;-89
2023/09/29 06:16:55;;;;;;;8.70;7.00;;;;;;;17.07;92.84;98456.06;4177799;28;21445;-88
2023/09/29 06:18:58;;;;;;;7.63;6.83;;;;;;;17.00;92.71;98454.94;4193148;28;21198;-88
2023/09/29 06:21:02;;;;;;;9.90;6.57;;;;;;;16.97;94.20;98457.84;4205352;28;20676;-89
2023/09/29 06:23:06;;;;;;;9.77;6.50;;;;;;;16.94;94.39;98462.56;4175600;28;20652;-88
2023/09/29 06:25:10;;;;;;;9.93;7.20;;;;;;;16.91;93.33;98454.91;4182540;28;20626;-87
2023/09/29 06:27:14;;;;;;;8.70;6.63;;;;;;;16.88;94.58;98458.66;4178047;28;21341;-88
2023/09/29 06:29:18;;;;;;;8.80;7.20;;;;;;;16.85;94.51;98461.56;4178912;28;20714;-87
2023/09/29 06:31:22;;;;;;;8.20;6.93;;;;;;;16.88;94.54;98463.91;4186281;28;20643;-88
2023/09/29 06:33:26;;;;;;;11.90;7.80;;;;;;;16.94;94.76;98466.00;4174319;28;21217;-87
2023/09/29 06:35:28;;;;;;;12.60;6.97;;;;;;;16.99;94.69;98462.03;4199436;28;21469;-87
2023/09/29 06:37:31;;;;;;;11.03;7.20;;;;;;;17.03;94.47;98467.84;4186035;28;20629;-87
2023/09/29 06:39:36;;;;;;;10.17;6.97;;;;;;;17.07;94.66;98471.88;4183198;28;20646;-87
2023/09/29 06:41:38;;;;;;;9.53;7.10;;;;;;;17.12;95.10;98475.81;4169160;28;20652;-87
2023/09/29 06:43:45;;;;;;;8.77;6.77;;;;;;;17.19;94.79;98489.25;4179114;28;21050;-87
2023/09/29 06:45:49;;;;;;;8.90;7.50;;;;;;;17.24;95.01;98485.25;4182051;28;20734;-86
2023/09/29 06:47:55;;;;;;;11.47;7.00;;;;;;;17.24;95.17;98495.00;4189015;28;21025;-87
2023/09/29 06:49:58;;;;;;;9.37;7.93;;;;;;;17.27;94.61;98492.91;4173535;28;20726;-87
2023/09/29 06:52:02;;;;;;;8.87;7.10;;;;;;;17.29;94.68;98490.13;4174615;28;20626;-87
2023/09/29 06:54:06;;;;;;;10.00;7.40;;;;;;;17.29;94.68;98487.50;4176217;28;20627;-87
2023/09/29 06:56:10;;;;;;;8.43;7.53;;;;;;;17.31;96.03;98485.56;4169776;28;20727;-87
2023/09/29 06:58:13;;;;;;;7.90;7.10;;;;;;;17.34;95.11;98483.50;4184375;28;20661;-87
2023/09/29 07:00:17;;;;;;;9.27;6.73;;;;;;;17.34;95.09;98493.22;4167134;28;21176;-86
2023/09/29 07:02:20;;;;;;;8.10;6.97;;;;;;;17.39;94.76;98481.28;4173582;28;20646;-87
2023/09/29 07:04:24;;;;;;;10.37;6.43;;;;;;;17.45;94.82;98486.00;4185288;28;20734;-87
2023/09/29 07:06:27;;;;;;;11.07;6.80;;;;;;;17.49;95.28;98485.59;4190072;28;20724;-86
2023/09/29 07:08:30;;;;;;;9.70;7.10;;;;;;;17.54;94.65;98493.91;4203575;28;21012;-86
2023/09/29 07:10:33;;;;;;;8.30;7.10;;;;;;;17.63;96.27;98502.81;4174753;28;20636;-86
2023/09/29 07:12:38;;;;;;;7.80;6.60;;;;;;;17.67;95.78;98493.66;4173425;28;20648;-88
2023/09/29 07:14:42;;;;;;;12.23;10.20;;;;;;;17.71;95.71;98498.53;4172622;28;20626;-86
2023/09/29 07:16:49;;;;;;;10.37;7.80;;;;;;;17.75;95.72;98494.63;4183925;28;21206;-85
2023/09/29 07:18:53;;;;;;;10.17;6.80;;;;;;;17.80;95.32;98496.84;4188852;28;20632;-85
2023/09/29 07:20:58;;;;;;;9.30;7.33;;;;;;;17.82;94.92;98503.66;4173671;28;20638;-85
2023/09/29 07:23:02;;;;;;;10.10;7.13;;;;;;;17.88;95.45;98497.81;4172675;28;21871;-85
2023/09/29 07:25:07;;;;;;;7.50;6.40;;;;;;;17.98;95.54;98498.63;4186705;28;21503;-85
2023/09/29 07:27:12;;;;;;;10.10;7.67;;;;;;;18.07;96.30;98492.50;4203149;28;20668;-86
2023/09/29 07:29:18;;;;;;;9.20;6.97;;;;;;;18.16;95.79;98499.63;4186284;28;20619;-85
2023/09/29 07:31:21;;;;;;;10.67;6.70;;;;;;;18.23;95.06;98493.63;4188768;28;20756;-85
2023/09/29 07:33:24;;;;;;;11.77;7.37;;;;;;;18.31;95.52;98501.72;4185230;28;20610;-85
2023/09/29 07:35:28;;;;;;;8.80;6.77;;;;;;;18.36;96.19;98490.69;4163760;28;20623;-86
2023/09/29 07:37:32;;;;;;;8.83;7.83;;;;;;;18.42;96.14;98496.25;4172949;28;20623;-86
2023/09/29 07:39:35;;;;;;;11.63;7.00;;;;;;;18.53;96.37;98494.25;4170571;28;20995;-86
2023/09/29 07:41:38;;;;;;;9.43;5.93;;;;;;;18.67;96.38;98495.59;4187752;28;20638;-85
2023/09/29 07:43:43;;;;;;;8.67;6.37;;;;;;;18.82;96.03;98497.63;4168850;28;20658;-85
2023/09/29 07:45:47;;;;;;;12.97;6.90;;;;;;;18.96;94.29;98499.81;4186482;28;21256;-85
2023/09/29 07:47:51;;;;;;;9.50;6.93;;;;;;;19.08;94.36;98501.31;4187892;28;21224;-85
2023/09/29 07:49:54;;;;;;;8.50;7.00;;;;;;;19.18;94.30;98504.72;4187035;28;20626;-85
2023/09/29 07:51:57;;;;;;;7.27;6.37;;;;;;;19.28;94.40;98492.28;4186651;28;20642;-86
2023/09/29 07:54:01;;;;;;;8.27;6.73;;;;;;;19.38;95.38;98497.38;4185867;28;20633;-86
2023/09/29 07:56:04;;;;;;;9.63;7.27;;;;;;;19.49;95.64;98493.69;4173480;28;20751;-86
2023/09/29 07:58:08;;;;;;;10.30;7.00;;;;;;;19.56;95.65;98500.03;4203703;28;20637;-85
2023/09/29 08:00:12;;;;;;;7.63;6.63;;;;;;;19.59;95.12;98505.88;4183749;28;20636;-86
2023/09/29 08:02:17;;;;;;;8.47;6.73;;;;;;;19.63;95.33;98501.91;4183066;28;20629;-86
2023/09/29 08:04:20;;;;;;;9.30;6.87;;;;;;;19.73;94.83;98512.47;4180118;28;20753;-86
2023/09/29 08:06:24;;;;;;;9.60;7.10;;;;;;;19.80;94.96;98505.56;4180523;28;20734;-86
2023/09/29 08:08:28;;;;;;;11.23;7.33;;;;;;;19.90;94.33;98515.13;4184019;28;20735;-87
2023/09/29 08:10:32;;;;;;;10.27;6.67;;;;;;;20.01;95.29;98518.38;4189060;28;20635;-86
2023/09/29 08:12:36;;;;;;;9.73;7.60;;;;;;;20.10;94.09;98511.31;4187817;28;21173;-86
2023/09/29 08:14:39;;;;;;;9.70;6.93;;;;;;;20.20;94.03;98517.38;4184931;28;20641;-87
2023/09/29 08:16:42;;;;;;;9.90;7.37;;;;;;;20.28;92.39;98522.72;4166064;28;20648;-87
2023/09/29 08:18:47;;;;;;;8.53;6.30;;;;;;;20.34;92.05;98515.00;4204203;28;20649;-86
2023/09/29 08:20:52;;;;;;;9.27;7.00;;;;;;;20.43;92.58;98519.38;4201457;28;20726;-87
2023/09/29 08:22:56;;;;;;;12.30;7.33;;;;;;;20.56;94.05;98517.97;4180230;28;20636;-87
2023/09/29 08:25:03;;;;;;;10.70;7.40;;;;;;;20.68;94.79;98519.41;4188398;28;20706;-87
2023/09/29 08:27:06;;;;;;;8.90;7.13;;;;;;;20.80;92.04;98523.47;4200010;28;20634;-87
2023/09/29 08:29:14;;;;;;;10.03;7.20;;;;;;;20.90;93.13;98527.66;4187489;28;20635;-87
2023/09/29 08:31:17;;;;;;;8.93;7.17;;;;;;;21.04;92.11;98531.56;4174880;28;21025;-87
2023/09/29 08:33:21;;;;;;;8.87;6.83;;;;;;;21.15;90.36;98525.97;4200066;28;20629;-87
2023/09/29 08:35:45;;;;;;;8.63;6.30;;;;;;;21.47;90.00;98527.78;4186561;28;20732;-89
2023/09/29 08:37:49;;;;;;;9.23;6.10;;;;;;;21.71;87.78;98530.50;4166606;28;20643;-89
2023/09/29 08:39:53;;;;;;;6.23;4.17;;;;;;;21.95;83.14;98519.91;4180764;28;20691;-88
2023/09/29 08:42:01;;;;;;;5.77;4.50;;;;;;;21.98;82.92;98516.91;4178278;28;20640;-88
2023/09/29 08:44:08;;;;;;;6.97;4.83;;;;;;;22.04;80.58;98508.28;4187760;28;20670;-88
2023/09/29 08:46:13;;;;;;;5.57;4.70;;;;;;;22.40;81.95;98526.41;4184402;28;21052;-88
2023/09/29 08:48:16;;;;;;;7.57;4.10;;;;;;;22.67;78.47;98518.91;4187010;28;20632;-88
2023/09/29 08:50:22;;;;;;;4.60;3.87;;;;;;;23.00;77.14;98520.53;4168339;28;21241;-89
2023/09/29 08:52:29;;;;;;;4.73;3.83;;;;;;;23.36;73.83;98512.75;4181714;28;20649;-89
2023/09/29 08:54:32;;;;;;;7.40;3.97;;;;;;;23.66;71.84;98509.25;4184784;28;20637;-88
2023/09/29 08:56:36;;;;;;;5.30;3.70;;;;;;;23.94;71.16;98519.25;4173972;28;20638;-87
2023/09/29 08:58:39;;;;;;;6.00;4.77;;;;;;;24.20;70.30;98517.06;4185708;28;20625;-88
2023/09/29 09:00:43;;;;;;;4.93;4.13;;;;;;;24.18;70.18;98511.91;4180784;28;20641;-88
2023/09/29 09:02:52;;;;;;;4.80;4.00;;;;;;;24.07;70.88;98507.97;4170532;28;20739;-88
2023/09/29 09:04:56;;;;;;;4.97;4.07;;;;;;;24.00;69.84;98510.53;4197402;28;20729;-89
2023/09/29 09:07:00;;;;;;;5.70;3.30;;;;;;;24.00;69.78;98507.06;4186348;28;20659;-88
2023/09/29 09:09:05;;;;;;;4.27;3.60;;;;;;;23.87;70.12;98496.97;4184111;28;20668;-87
2023/09/29 09:11:08;;;;;;;4.77;3.50;;;;;;;23.85;68.79;98500.81;4179789;28;20714;-88
2023/09/29 09:13:11;;;;;;;8.50;3.70;;;;;;;24.10;70.17;98496.97;4184802;28;20726;-87
2023/09/29 09:15:26;;;;;;;5.63;3.97;;;;;;;24.35;69.31;98493.97;4196189;28;20634;-88
2023/09/29 09:17:31;;;;;;;4.67;3.70;;;;;;;24.47;68.96;98484.50;4188757;28;20637;-90
2023/09/29 09:19:42;;;;;;;4.70;3.83;;;;;;;24.66;69.55;98495.50;4182336;28;21162;-89
2023/09/29 09:21:46;;;;;;;4.27;3.60;;;;;;;24.77;69.15;98495.84;4186715;28;20629;-90
2023/09/29 09:23:50;;;;;;;7.83;4.20;;;;;;;24.90;69.60;98484.56;4187846;28;20631;-89
2023/09/29 09:25:54;;;;;;;5.80;4.50;;;;;;;25.05;69.51;98494.25;4185772;28;20710;-89
2023/09/29 09:27:56;;;;;;;5.63;3.50;;;;;;;25.20;70.90;98490.56;4187699;28;20651;-89
2023/09/29 09:30:00;;;;;;;4.73;3.60;;;;;;;25.32;68.59;98497.09;4185320;28;21224;-89
2023/09/29 09:32:06;;;;;;;5.10;4.00;;;;;;;25.42;68.36;98488.78;4185546;28;20631;-89
2023/09/29 09:34:09;;;;;;;6.20;4.47;;;;;;;25.49;67.14;98487.84;4172814;28;20641;-89
2023/09/29 09:36:12;;;;;;;4.73;3.40;;;;;;;25.52;67.01;98484.78;4170193;28;20668;-89
2023/09/29 09:38:15;;;;;;;4.97;3.60;;;;;;;25.62;67.20;98485.31;4184021;28;20627;-89
2023/09/29 09:40:20;;;;;;;5.40;4.10;;;;;;;25.68;67.56;98489.97;4171783;28;20640;-89
2023/09/29 09:42:26;;;;;;;4.67;3.60;;;;;;;25.76;66.85;98477.28;4186981;28;20678;-89
2023/09/29 09:44:32;;;;;;;5.57;4.63;;;;;;;25.89;67.39;98487.28;4190504;28;20665;-89